createdAt,value
2017-11-18T09:32:40.990Z,1013.1
2017-11-18T09:33:41.299Z,1013.1
2017-11-18T09:34:41.281Z,1013.1
2017-11-18T09:35:41.059Z,1013.07
2017-11-18T09:36:41.219Z,1013.04
2017-11-18T09:37:41.311Z,1013.07
2017-11-18T09:38:41.231Z,1013.06
2017-11-18T09:39:41.265Z,1013.03
2017-11-18T09:40:41.454Z,1013
2017-11-18T09:41:41.235Z,1013.05
2017-11-18T09:42:41.291Z,1013.03
2017-11-18T09:43:41.304Z,1012.94
2017-11-18T09:44:41.344Z,1012.95
2017-11-18T09:45:41.587Z,1013.01
2017-11-18T09:46:41.458Z,1012.91
2017-11-18T09:47:41.624Z,1012.94
2017-11-18T09:48:41.652Z,1012.84
2017-11-18T09:49:41.645Z,1012.83
2017-11-18T09:50:41.473Z,1012.84
2017-11-18T09:51:41.746Z,1012.84
2017-11-18T09:52:41.478Z,1012.78
2017-11-18T09:53:41.547Z,1012.84
2017-11-18T09:54:41.998Z,1012.73
2017-11-18T09:55:41.810Z,1012.79
2017-11-18T09:56:41.886Z,1012.7
2017-11-18T09:57:41.833Z,1012.78
2017-11-18T09:58:41.890Z,1012.68
2017-11-18T09:59:41.649Z,1012.73
2017-11-18T10:00:41.991Z,1012.68
2017-11-18T10:01:41.712Z,1012.63
2017-11-18T10:02:41.967Z,1012.65
2017-11-18T10:03:41.846Z,1012.6
2017-11-18T10:04:41.784Z,1012.58
2017-11-18T10:05:41.827Z,1012.59
2017-11-18T10:06:42.064Z,1012.62
2017-11-18T10:07:41.830Z,1012.54
2017-11-18T10:08:41.889Z,1012.55
2017-11-18T10:09:41.890Z,1012.53
2017-11-18T10:10:42.269Z,1012.52
2017-11-18T10:11:41.970Z,1012.52
2017-11-18T10:12:42.695Z,1012.49
2017-11-18T10:13:42.885Z,1012.47
2017-11-18T10:14:42.969Z,1012.46
2017-11-18T10:15:42.945Z,1012.47
2017-11-18T10:16:42.848Z,1012.47
2017-11-18T10:17:43.067Z,1012.42
2017-11-18T10:18:43.037Z,1012.43
2017-11-18T10:19:42.833Z,1012.39
2017-11-18T10:20:43.383Z,1012.42
2017-11-18T10:21:43.387Z,1012.34
2017-11-18T10:22:43.649Z,1012.29
2017-11-18T10:23:43.635Z,1012.24
2017-11-18T10:24:43.720Z,1012.26
2017-11-18T10:25:43.749Z,1012.28
2017-11-18T10:26:43.705Z,1012.32
2017-11-18T10:27:43.540Z,1012.29
2017-11-18T10:28:43.509Z,1012.21
2017-11-18T10:29:43.680Z,1012.16
2017-11-18T10:30:43.541Z,1012.2
2017-11-18T10:31:43.869Z,1012.21
2017-11-18T10:32:44.000Z,1012.18
2017-11-18T10:33:43.942Z,1012.17
2017-11-18T10:34:43.693Z,1012.18
2017-11-18T10:35:43.995Z,1012.16
2017-11-18T10:36:43.687Z,1012.19
2017-11-18T10:37:44.035Z,1012.09
2017-11-18T10:38:44.075Z,1012.1
2017-11-18T10:39:44.234Z,1012.08
2017-11-18T10:40:44.120Z,1012.04
2017-11-18T10:41:43.963Z,1012.08
2017-11-18T10:42:43.860Z,1011.96
2017-11-18T10:43:43.994Z,1011.97
2017-11-18T10:44:44.169Z,1011.95
2017-11-18T10:45:44.153Z,1011.98
2017-11-18T10:46:44.179Z,1011.99
2017-11-18T10:47:45.361Z,1011.95
2017-11-18T10:48:45.102Z,1011.85
2017-11-18T10:49:45.326Z,1011.85
2017-11-18T10:50:45.137Z,1011.73
2017-11-18T10:51:45.414Z,1011.71
2017-11-18T10:52:45.380Z,1011.74
2017-11-18T10:53:45.409Z,1011.73
2017-11-18T10:54:45.461Z,1011.72
2017-11-18T10:55:45.250Z,1011.8
2017-11-18T10:56:45.670Z,1011.73
2017-11-18T10:57:45.425Z,1011.68
2017-11-18T10:58:45.466Z,1011.67
2017-11-18T10:59:45.323Z,1011.67
2017-11-18T11:00:45.272Z,1011.58
2017-11-18T11:01:45.563Z,1011.49
2017-11-18T11:02:45.336Z,1011.46
2017-11-18T11:03:45.488Z,1011.54
2017-11-18T11:04:45.623Z,1011.42
2017-11-18T11:05:45.906Z,1011.46
2017-11-18T11:06:45.885Z,1011.51
2017-11-18T11:07:45.988Z,1011.48
2017-11-18T11:08:45.909Z,1011.45
2017-11-18T11:09:45.978Z,1011.4
2017-11-18T11:10:45.739Z,1011.43
2017-11-18T11:11:45.938Z,1011.39
2017-11-18T11:12:45.921Z,1011.37
2017-11-18T11:13:45.848Z,1011.32
2017-11-18T11:14:45.728Z,1011.33
2017-11-18T11:15:45.784Z,1011.4
2017-11-18T11:16:45.863Z,1011.32
2017-11-18T11:17:45.820Z,1011.28
2017-11-18T11:18:45.967Z,1011.28
2017-11-18T11:19:46.158Z,1011.27
2017-11-18T11:20:46.057Z,1011.15
2017-11-18T11:21:45.918Z,1011.15
2017-11-18T11:22:46.055Z,1011.08
2017-11-18T11:23:45.998Z,1011.04
2017-11-18T11:24:46.311Z,1011
2017-11-18T11:25:46.337Z,1010.96
2017-11-18T11:26:46.750Z,1010.93
2017-11-18T11:27:46.651Z,1010.94
2017-11-18T11:28:46.709Z,1010.81
2017-11-18T11:29:46.777Z,1010.84
